sensor_id;sensor_type;location;lat;lon;timestamp;pressure;altitude;pressure_sealevel;temperature;humidity
75424;BME280;64005;55.160;36.002;2022-10-16T00:01:14;100322.41;;;2.02;73.51
75424;BME280;64005;55.160;36.002;2022-10-16T00:03:42;100323.47;;;2.01;73.30
75424;BME280;64005;55.160;36.002;2022-10-16T00:06:10;100324.31;;;2.02;73.32
75424;BME280;64005;55.160;36.002;2022-10-16T00:08:37;100323.47;;;2.01;72.97
75424;BME280;64005;55.160;36.002;2022-10-16T00:11:15;100328.13;;;2.00;73.18
75424;BME280;64005;55.160;36.002;2022-10-16T00:13:42;100316.84;;;1.97;72.91
75424;BME280;64005;55.160;36.002;2022-10-16T00:16:11;100332.94;;;1.93;73.10
75424;BME280;64005;55.160;36.002;2022-10-16T00:18:37;100325.31;;;1.95;73.17
75424;BME280;64005;55.160;36.002;2022-10-16T00:21:06;100342.59;;;1.96;73.20
75424;BME280;64005;55.160;36.002;2022-10-16T00:23:54;100336.19;;;1.90;73.33
75424;BME280;64005;55.160;36.002;2022-10-16T00:26:20;100318.47;;;1.81;73.18
75424;BME280;64005;55.160;36.002;2022-10-16T00:28:48;100324.03;;;1.86;73.55
75424;BME280;64005;55.160;36.002;2022-10-16T00:31:16;100332.03;;;1.88;73.35
75424;BME280;64005;55.160;36.002;2022-10-16T00:33:42;100331.47;;;1.86;73.21
75424;BME280;64005;55.160;36.002;2022-10-16T00:36:11;100331.94;;;1.83;73.28
75424;BME280;64005;55.160;36.002;2022-10-16T00:38:37;100333.00;;;1.82;73.77
75424;BME280;64005;55.160;36.002;2022-10-16T00:41:05;100322.28;;;1.80;73.60
75424;BME280;64005;55.160;36.002;2022-10-16T00:43:52;100345.06;;;1.81;73.66
75424;BME280;64005;55.160;36.002;2022-10-16T00:46:24;100337.81;;;1.75;73.68
75424;BME280;64005;55.160;36.002;2022-10-16T00:49:00;100342.47;;;1.74;73.68
75424;BME280;64005;55.160;36.002;2022-10-16T00:51:36;100343.47;;;1.68;73.60
75424;BME280;64005;55.160;36.002;2022-10-16T00:54:04;100346.69;;;1.65;74.15
75424;BME280;64005;55.160;36.002;2022-10-16T00:56:33;100338.72;;;1.64;74.18
75424;BME280;64005;55.160;36.002;2022-10-16T00:59:04;100351.84;;;1.62;73.94
75424;BME280;64005;55.160;36.002;2022-10-16T01:01:32;100310.81;;;1.38;73.71
75424;BME280;64005;55.160;36.002;2022-10-16T01:03:57;100346.50;;;1.55;73.59
75424;BME280;64005;55.160;36.002;2022-10-16T01:06:29;100354.97;;;1.53;73.75
75424;BME280;64005;55.160;36.002;2022-10-16T01:09:11;100347.72;;;1.47;73.76
75424;BME280;64005;55.160;36.002;2022-10-16T01:17:17;100353.59;;;1.39;74.41
75424;BME280;64005;55.160;36.002;2022-10-16T01:28:02;100350.41;;;1.31;74.49
75424;BME280;64005;55.160;36.002;2022-10-16T01:30:31;100353.75;;;1.33;74.67
75424;BME280;64005;55.160;36.002;2022-10-16T01:33:05;100329.91;;;1.22;74.21
75424;BME280;64005;55.160;36.002;2022-10-16T01:35:54;100345.38;;;1.28;73.77
75424;BME280;64005;55.160;36.002;2022-10-16T01:38:29;100354.31;;;1.35;74.16
75424;BME280;64005;55.160;36.002;2022-10-16T01:41:24;100355.97;;;1.36;74.09
75424;BME280;64005;55.160;36.002;2022-10-16T01:44:04;100356.22;;;1.34;74.71
75424;BME280;64005;55.160;36.002;2022-10-16T01:46:32;100351.00;;;1.33;74.83
75424;BME280;64005;55.160;36.002;2022-10-16T01:49:00;100354.81;;;1.32;74.72
75424;BME280;64005;55.160;36.002;2022-10-16T01:51:29;100358.38;;;1.32;74.04
75424;BME280;64005;55.160;36.002;2022-10-16T01:53:58;100356.34;;;1.28;74.39
75424;BME280;64005;55.160;36.002;2022-10-16T01:56:26;100356.00;;;1.24;74.28
75424;BME280;64005;55.160;36.002;2022-10-16T01:59:01;100361.50;;;1.24;74.32
75424;BME280;64005;55.160;36.002;2022-10-16T02:01:33;100367.72;;;1.19;74.54
75424;BME280;64005;55.160;36.002;2022-10-16T02:04:07;100363.53;;;1.17;74.92
75424;BME280;64005;55.160;36.002;2022-10-16T02:06:34;100368.66;;;1.13;74.95
75424;BME280;64005;55.160;36.002;2022-10-16T02:09:01;100370.59;;;1.13;74.85
75424;BME280;64005;55.160;36.002;2022-10-16T02:11:27;100372.22;;;1.14;74.58
75424;BME280;64005;55.160;36.002;2022-10-16T02:14:01;100375.22;;;1.12;74.77
75424;BME280;64005;55.160;36.002;2022-10-16T02:16:38;100377.97;;;1.12;74.65
75424;BME280;64005;55.160;36.002;2022-10-16T02:19:05;100374.41;;;1.12;74.77
75424;BME280;64005;55.160;36.002;2022-10-16T02:26:36;100378.09;;;1.06;75.53
75424;BME280;64005;55.160;36.002;2022-10-16T02:29:08;100389.06;;;1.06;74.81
75424;BME280;64005;55.160;36.002;2022-10-16T02:31:41;100388.94;;;1.01;75.48
75424;BME280;64005;55.160;36.002;2022-10-16T02:34:09;100385.25;;;0.95;74.86
75424;BME280;64005;55.160;36.002;2022-10-16T02:36:38;100385.97;;;0.91;74.82
75424;BME280;64005;55.160;36.002;2022-10-16T02:39:05;100387.88;;;0.90;75.62
75424;BME280;64005;55.160;36.002;2022-10-16T02:41:32;100385.88;;;0.86;74.89
75424;BME280;64005;55.160;36.002;2022-10-16T02:43:58;100384.66;;;0.82;75.64
75424;BME280;64005;55.160;36.002;2022-10-16T02:46:24;100389.41;;;0.74;75.06
75424;BME280;64005;55.160;36.002;2022-10-16T02:48:49;100386.34;;;0.71;74.74
75424;BME280;64005;55.160;36.002;2022-10-16T02:51:15;100387.53;;;0.63;75.44
75424;BME280;64005;55.160;36.002;2022-10-16T02:53:41;100394.91;;;0.63;76.00
75424;BME280;64005;55.160;36.002;2022-10-16T02:56:07;100386.34;;;0.59;75.38
75424;BME280;64005;55.160;36.002;2022-10-16T02:58:32;100393.47;;;0.60;75.40
75424;BME280;64005;55.160;36.002;2022-10-16T03:00:58;100395.41;;;0.60;75.82
75424;BME280;64005;55.160;36.002;2022-10-16T03:03:24;100399.19;;;0.59;75.27
75424;BME280;64005;55.160;36.002;2022-10-16T03:05:50;100390.16;;;0.58;75.73
75424;BME280;64005;55.160;36.002;2022-10-16T03:08:15;100400.50;;;0.56;75.67
75424;BME280;64005;55.160;36.002;2022-10-16T03:10:41;100395.97;;;0.50;75.33
75424;BME280;64005;55.160;36.002;2022-10-16T03:13:07;100396.31;;;0.54;75.46
75424;BME280;64005;55.160;36.002;2022-10-16T03:15:33;100389.31;;;0.46;75.30
75424;BME280;64005;55.160;36.002;2022-10-16T03:17:59;100388.47;;;0.46;75.29
75424;BME280;64005;55.160;36.002;2022-10-16T03:20:26;100392.38;;;0.50;75.42
75424;BME280;64005;55.160;36.002;2022-10-16T03:22:51;100399.16;;;0.47;75.99
75424;BME280;64005;55.160;36.002;2022-10-16T03:25:17;100406.78;;;0.45;76.06
75424;BME280;64005;55.160;36.002;2022-10-16T03:27:43;100391.78;;;0.36;75.61
75424;BME280;64005;55.160;36.002;2022-10-16T03:30:10;100401.16;;;0.40;75.90
75424;BME280;64005;55.160;36.002;2022-10-16T03:32:36;100397.84;;;0.38;75.52
75424;BME280;64005;55.160;36.002;2022-10-16T03:35:02;100401.56;;;0.44;75.99
75424;BME280;64005;55.160;36.002;2022-10-16T03:37:28;100401.44;;;0.38;76.26
75424;BME280;64005;55.160;36.002;2022-10-16T03:39:54;100395.34;;;0.36;76.02
75424;BME280;64005;55.160;36.002;2022-10-16T03:42:20;100401.88;;;0.35;76.28
75424;BME280;64005;55.160;36.002;2022-10-16T03:44:46;100396.16;;;0.25;75.45
75424;BME280;64005;55.160;36.002;2022-10-16T03:47:11;100403.66;;;0.30;75.67
75424;BME280;64005;55.160;36.002;2022-10-16T03:49:37;100384.94;;;0.15;76.25
75424;BME280;64005;55.160;36.002;2022-10-16T03:52:03;100409.69;;;0.20;75.89
75424;BME280;64005;55.160;36.002;2022-10-16T03:54:29;100404.94;;;0.16;75.46
75424;BME280;64005;55.160;36.002;2022-10-16T03:56:55;100409.44;;;0.10;75.48
75424;BME280;64005;55.160;36.002;2022-10-16T03:59:20;100404.44;;;0.07;75.75
75424;BME280;64005;55.160;36.002;2022-10-16T04:01:46;100400.47;;;-0.09;76.47
75424;BME280;64005;55.160;36.002;2022-10-16T04:04:12;100407.13;;;-0.05;75.60
75424;BME280;64005;55.160;36.002;2022-10-16T04:06:38;100408.81;;;-0.04;76.77
75424;BME280;64005;55.160;36.002;2022-10-16T04:09:03;100418.31;;;-0.06;76.22
75424;BME280;64005;55.160;36.002;2022-10-16T04:11:29;100411.50;;;-0.15;76.49
75424;BME280;64005;55.160;36.002;2022-10-16T04:13:55;100414.47;;;-0.17;76.35
75424;BME280;64005;55.160;36.002;2022-10-16T04:16:21;100410.16;;;-0.24;75.77
75424;BME280;64005;55.160;36.002;2022-10-16T04:18:47;100411.69;;;-0.28;76.64
75424;BME280;64005;55.160;36.002;2022-10-16T04:21:13;100422.16;;;-0.25;76.71
75424;BME280;64005;55.160;36.002;2022-10-16T04:23:39;100417.06;;;-0.22;75.89
75424;BME280;64005;55.160;36.002;2022-10-16T04:26:05;100423.28;;;-0.15;76.05
75424;BME280;64005;55.160;36.002;2022-10-16T04:30:57;100426.06;;;-0.03;75.71
75424;BME280;64005;55.160;36.002;2022-10-16T04:33:23;100433.94;;;0.05;76.80
75424;BME280;64005;55.160;36.002;2022-10-16T04:35:56;100426.22;;;0.14;76.08
75424;BME280;64005;55.160;36.002;2022-10-16T04:38:22;100432.81;;;0.24;76.31
75424;BME280;64005;55.160;36.002;2022-10-16T04:40:47;100434.97;;;0.34;76.52
75424;BME280;64005;55.160;36.002;2022-10-16T04:43:13;100429.63;;;0.39;76.35
75424;BME280;64005;55.160;36.002;2022-10-16T04:45:39;100433.69;;;0.48;76.22
75424;BME280;64005;55.160;36.002;2022-10-16T04:48:04;100433.34;;;0.56;76.38
75424;BME280;64005;55.160;36.002;2022-10-16T04:50:30;100440.16;;;0.65;75.83
75424;BME280;64005;55.160;36.002;2022-10-16T04:52:56;100438.13;;;0.72;76.18
75424;BME280;64005;55.160;36.002;2022-10-16T04:55:22;100438.88;;;0.79;75.83
75424;BME280;64005;55.160;36.002;2022-10-16T04:57:48;100444.81;;;0.88;75.82
75424;BME280;64005;55.160;36.002;2022-10-16T05:00:13;100445.50;;;0.95;75.96
75424;BME280;64005;55.160;36.002;2022-10-16T05:02:39;100448.97;;;1.02;75.78
75424;BME280;64005;55.160;36.002;2022-10-16T05:05:05;100457.91;;;1.09;75.72
75424;BME280;64005;55.160;36.002;2022-10-16T05:07:32;100443.03;;;1.17;75.17
75424;BME280;64005;55.160;36.002;2022-10-16T05:09:58;100449.81;;;1.26;75.15
75424;BME280;64005;55.160;36.002;2022-10-16T05:12:23;100447.19;;;1.31;75.21
75424;BME280;64005;55.160;36.002;2022-10-16T05:14:49;100453.09;;;1.40;75.42
75424;BME280;64005;55.160;36.002;2022-10-16T05:17:15;100456.31;;;1.48;75.19
75424;BME280;64005;55.160;36.002;2022-10-16T05:19:41;100459.75;;;1.55;74.90
75424;BME280;64005;55.160;36.002;2022-10-16T05:22:06;100461.31;;;1.63;74.83
75424;BME280;64005;55.160;36.002;2022-10-16T05:24:32;100459.84;;;1.72;75.25
75424;BME280;64005;55.160;36.002;2022-10-16T05:26:58;100461.34;;;1.80;74.71
75424;BME280;64005;55.160;36.002;2022-10-16T05:29:24;100466.22;;;1.89;74.97
75424;BME280;64005;55.160;36.002;2022-10-16T05:31:52;100459.53;;;1.97;75.18
75424;BME280;64005;55.160;36.002;2022-10-16T05:34:18;100457.25;;;2.06;74.24
75424;BME280;64005;55.160;36.002;2022-10-16T05:36:44;100465.88;;;2.14;74.47
75424;BME280;64005;55.160;36.002;2022-10-16T05:39:11;100467.19;;;2.23;74.56
75424;BME280;64005;55.160;36.002;2022-10-16T05:41:37;100462.13;;;2.32;74.23
75424;BME280;64005;55.160;36.002;2022-10-16T05:44:06;100460.88;;;2.39;74.07
75424;BME280;64005;55.160;36.002;2022-10-16T05:46:32;100461.06;;;2.50;73.98
75424;BME280;64005;55.160;36.002;2022-10-16T05:48:59;100465.91;;;2.59;73.67
75424;BME280;64005;55.160;36.002;2022-10-16T05:51:24;100461.66;;;2.68;73.59
75424;BME280;64005;55.160;36.002;2022-10-16T05:53:51;100459.09;;;2.78;73.60
75424;BME280;64005;55.160;36.002;2022-10-16T05:56:17;100469.41;;;2.88;73.24
75424;BME280;64005;55.160;36.002;2022-10-16T05:58:43;100469.84;;;2.97;73.23
75424;BME280;64005;55.160;36.002;2022-10-16T06:01:15;100479.31;;;3.06;73.06
75424;BME280;64005;55.160;36.002;2022-10-16T06:03:41;100465.41;;;3.12;72.91
75424;BME280;64005;55.160;36.002;2022-10-16T06:06:15;100477.16;;;3.25;73.01
75424;BME280;64005;55.160;36.002;2022-10-16T06:08:42;100475.38;;;3.35;72.35
75424;BME280;64005;55.160;36.002;2022-10-16T06:11:11;100456.13;;;3.35;72.15
75424;BME280;64005;55.160;36.002;2022-10-16T06:13:37;100481.41;;;3.54;72.42
75424;BME280;64005;55.160;36.002;2022-10-16T06:16:04;100478.81;;;3.64;71.85
75424;BME280;64005;55.160;36.002;2022-10-16T06:18:30;100485.25;;;3.75;72.05
75424;BME280;64005;55.160;36.002;2022-10-16T06:20:56;100486.81;;;3.87;71.75
75424;BME280;64005;55.160;36.002;2022-10-16T06:23:23;100480.59;;;3.97;71.36
75424;BME280;64005;55.160;36.002;2022-10-16T06:25:49;100488.97;;;4.07;71.64
75424;BME280;64005;55.160;36.002;2022-10-16T06:28:17;100473.34;;;4.13;70.75
75424;BME280;64005;55.160;36.002;2022-10-16T06:30:42;100487.88;;;4.30;70.58
75424;BME280;64005;55.160;36.002;2022-10-16T06:33:10;100479.97;;;4.38;70.66
75424;BME280;64005;55.160;36.002;2022-10-16T06:35:36;100486.09;;;4.46;70.53
75424;BME280;64005;55.160;36.002;2022-10-16T06:38:02;100485.97;;;4.57;70.47
75424;BME280;64005;55.160;36.002;2022-10-16T06:40:28;100489.06;;;4.66;70.39
75424;BME280;64005;55.160;36.002;2022-10-16T06:42:57;100486.66;;;4.74;69.58
75424;BME280;64005;55.160;36.002;2022-10-16T06:45:22;100481.25;;;4.85;69.86
75424;BME280;64005;55.160;36.002;2022-10-16T06:47:48;100485.16;;;4.94;69.12
75424;BME280;64005;55.160;36.002;2022-10-16T06:50:14;100486.34;;;5.03;68.67
75424;BME280;64005;55.160;36.002;2022-10-16T06:52:40;100494.44;;;5.14;69.08
75424;BME280;64005;55.160;36.002;2022-10-16T06:55:06;100486.78;;;5.22;68.78
75424;BME280;64005;55.160;36.002;2022-10-16T06:57:32;100489.91;;;5.35;68.73
75424;BME280;64005;55.160;36.002;2022-10-16T06:59:57;100494.94;;;5.43;68.56
75424;BME280;64005;55.160;36.002;2022-10-16T07:02:24;100503.00;;;5.55;67.93
75424;BME280;64005;55.160;36.002;2022-10-16T07:04:50;100497.28;;;5.67;68.08
75424;BME280;64005;55.160;36.002;2022-10-16T07:07:16;100506.72;;;5.76;67.30
75424;BME280;64005;55.160;36.002;2022-10-16T07:09:42;100505.94;;;5.85;67.49
75424;BME280;64005;55.160;36.002;2022-10-16T07:12:07;100507.44;;;5.98;67.35
75424;BME280;64005;55.160;36.002;2022-10-16T07:14:34;100499.44;;;6.07;67.04
75424;BME280;64005;55.160;36.002;2022-10-16T07:17:00;100511.38;;;6.22;67.18
75424;BME280;64005;55.160;36.002;2022-10-16T07:19:26;100515.84;;;6.33;67.04
75424;BME280;64005;55.160;36.002;2022-10-16T07:21:52;100504.00;;;6.48;66.33
75424;BME280;64005;55.160;36.002;2022-10-16T07:24:17;100504.31;;;6.62;66.78
75424;BME280;64005;55.160;36.002;2022-10-16T07:26:45;100506.28;;;6.76;65.77
75424;BME280;64005;55.160;36.002;2022-10-16T07:29:13;100500.75;;;6.87;65.89
75424;BME280;64005;55.160;36.002;2022-10-16T07:31:40;100509.06;;;6.97;65.22
75424;BME280;64005;55.160;36.002;2022-10-16T07:34:06;100517.09;;;7.08;65.17
75424;BME280;64005;55.160;36.002;2022-10-16T07:36:32;100500.47;;;7.18;64.65
75424;BME280;64005;55.160;36.002;2022-10-16T07:38:58;100509.06;;;7.37;64.53
75424;BME280;64005;55.160;36.002;2022-10-16T07:41:24;100509.88;;;7.48;64.74
75424;BME280;64005;55.160;36.002;2022-10-16T07:43:52;100502.66;;;7.57;64.13
75424;BME280;64005;55.160;36.002;2022-10-16T07:46:20;100491.56;;;7.62;63.68
75424;BME280;64005;55.160;36.002;2022-10-16T07:48:46;100500.09;;;7.81;63.36
75424;BME280;64005;55.160;36.002;2022-10-16T07:51:15;100501.44;;;7.93;63.46
75424;BME280;64005;55.160;36.002;2022-10-16T07:53:42;100509.44;;;8.05;62.91
75424;BME280;64005;55.160;36.002;2022-10-16T07:56:08;100505.53;;;8.16;63.18
75424;BME280;64005;55.160;36.002;2022-10-16T07:58:35;100500.50;;;8.23;62.73
75424;BME280;64005;55.160;36.002;2022-10-16T08:01:04;100507.13;;;8.32;61.62
75424;BME280;64005;55.160;36.002;2022-10-16T08:03:31;100496.84;;;8.38;61.68
75424;BME280;64005;55.160;36.002;2022-10-16T08:05:57;100500.13;;;8.50;61.71
75424;BME280;64005;55.160;36.002;2022-10-16T08:08:24;100507.00;;;8.63;61.22
75424;BME280;64005;55.160;36.002;2022-10-16T08:10:50;100505.81;;;8.74;61.02
75424;BME280;64005;55.160;36.002;2022-10-16T08:13:15;100500.19;;;8.84;61.00
75424;BME280;64005;55.160;36.002;2022-10-16T08:15:43;100501.78;;;8.95;60.58
75424;BME280;64005;55.160;36.002;2022-10-16T08:18:10;100503.94;;;8.98;60.00
75424;BME280;64005;55.160;36.002;2022-10-16T08:20:37;100493.66;;;9.04;59.81
75424;BME280;64005;55.160;36.002;2022-10-16T08:23:04;100493.91;;;9.07;60.05
75424;BME280;64005;55.160;36.002;2022-10-16T08:25:30;100501.56;;;9.21;59.32
75424;BME280;64005;55.160;36.002;2022-10-16T08:27:55;100495.88;;;9.36;59.48
75424;BME280;64005;55.160;36.002;2022-10-16T08:30:23;100499.97;;;9.43;58.74
75424;BME280;64005;55.160;36.002;2022-10-16T08:32:49;100496.88;;;9.50;58.58
75424;BME280;64005;55.160;36.002;2022-10-16T08:35:16;100498.41;;;9.61;58.42
75424;BME280;64005;55.160;36.002;2022-10-16T08:37:42;100503.03;;;9.71;58.08
75424;BME280;64005;55.160;36.002;2022-10-16T08:43:31;100501.50;;;10.07;57.68
75424;BME280;64005;55.160;36.002;2022-10-16T08:46:19;100494.53;;;10.10;57.31
75424;BME280;64005;55.160;36.002;2022-10-16T08:48:53;100501.13;;;10.19;57.27
75424;BME280;64005;55.160;36.002;2022-10-16T08:51:31;100484.34;;;10.24;56.68
75424;BME280;64005;55.160;36.002;2022-10-16T08:57:14;100492.00;;;10.37;56.47
75424;BME280;64005;55.160;36.002;2022-10-16T08:59:43;100493.59;;;10.43;56.07
75424;BME280;64005;55.160;36.002;2022-10-16T09:02:27;100504.84;;;10.52;55.99
75424;BME280;64005;55.160;36.002;2022-10-16T09:07:55;100492.59;;;10.53;54.98
75424;BME280;64005;55.160;36.002;2022-10-16T09:11:17;100504.09;;;10.65;54.86
75424;BME280;64005;55.160;36.002;2022-10-16T09:13:31;100506.53;;;10.71;55.48
75424;BME280;64005;55.160;36.002;2022-10-16T09:16:20;100504.94;;;10.84;55.03
75424;BME280;64005;55.160;36.002;2022-10-16T09:21:27;100506.91;;;11.02;54.06
75424;BME280;64005;55.160;36.002;2022-10-16T09:23:59;100503.41;;;11.10;54.09
75424;BME280;64005;55.160;36.002;2022-10-16T09:26:26;100501.69;;;11.14;54.47
75424;BME280;64005;55.160;36.002;2022-10-16T09:28:52;100505.00;;;11.17;53.66
75424;BME280;64005;55.160;36.002;2022-10-16T09:31:21;100504.00;;;11.26;53.30
75424;BME280;64005;55.160;36.002;2022-10-16T09:33:53;100498.44;;;11.26;52.97
75424;BME280;64005;55.160;36.002;2022-10-16T09:36:22;100491.19;;;11.25;53.35
75424;BME280;64005;55.160;36.002;2022-10-16T09:38:49;100491.44;;;11.29;53.21
75424;BME280;64005;55.160;36.002;2022-10-16T09:41:18;100496.06;;;11.33;52.64
75424;BME280;64005;55.160;36.002;2022-10-16T09:46:29;100479.25;;;11.38;52.89
75424;BME280;64005;55.160;36.002;2022-10-16T09:49:00;100472.69;;;11.48;52.73
75424;BME280;64005;55.160;36.002;2022-10-16T09:51:35;100489.56;;;11.57;52.01
75424;BME280;64005;55.160;36.002;2022-10-16T09:54:19;100475.63;;;11.57;52.65
75424;BME280;64005;55.160;36.002;2022-10-16T09:56:46;100474.38;;;11.63;52.23
75424;BME280;64005;55.160;36.002;2022-10-16T09:59:21;100471.78;;;11.66;51.83
75424;BME280;64005;55.160;36.002;2022-10-16T10:01:55;100468.72;;;11.68;52.00
75424;BME280;64005;55.160;36.002;2022-10-16T10:04:23;100476.13;;;11.72;51.89
75424;BME280;64005;55.160;36.002;2022-10-16T10:06:57;100468.53;;;11.78;51.52
75424;BME280;64005;55.160;36.002;2022-10-16T10:09:26;100471.84;;;11.80;51.14
75424;BME280;64005;55.160;36.002;2022-10-16T10:11:58;100473.81;;;11.93;51.20
75424;BME280;64005;55.160;36.002;2022-10-16T10:14:28;100483.31;;;12.06;50.96
75424;BME280;64005;55.160;36.002;2022-10-16T10:17:10;100476.00;;;12.10;50.59
75424;BME280;64005;55.160;36.002;2022-10-16T10:19:54;100477.63;;;12.11;50.00
75424;BME280;64005;55.160;36.002;2022-10-16T10:30:29;100470.41;;;12.10;49.46
75424;BME280;64005;55.160;36.002;2022-10-16T10:33:31;100461.53;;;12.08;49.88
75424;BME280;64005;55.160;36.002;2022-10-16T10:36:29;100468.13;;;12.12;49.83
75424;BME280;64005;55.160;36.002;2022-10-16T10:38:58;100470.19;;;12.20;49.38
75424;BME280;64005;55.160;36.002;2022-10-16T10:49:48;100463.16;;;12.36;49.16
75424;BME280;64005;55.160;36.002;2022-10-16T10:52:34;100462.91;;;12.46;49.26
75424;BME280;64005;55.160;36.002;2022-10-16T10:58:17;100456.59;;;12.54;48.98
75424;BME280;64005;55.160;36.002;2022-10-16T11:06:22;100463.50;;;12.57;48.36
75424;BME280;64005;55.160;36.002;2022-10-16T11:08:55;100452.56;;;12.60;48.25
75424;BME280;64005;55.160;36.002;2022-10-16T11:11:29;100461.31;;;12.67;48.33
75424;BME280;64005;55.160;36.002;2022-10-16T11:14:26;100458.41;;;12.72;48.36
75424;BME280;64005;55.160;36.002;2022-10-16T11:17:10;100456.25;;;12.69;48.12
75424;BME280;64005;55.160;36.002;2022-10-16T11:19:46;100452.94;;;12.67;48.06
75424;BME280;64005;55.160;36.002;2022-10-16T11:24:51;100456.44;;;12.73;47.81
75424;BME280;64005;55.160;36.002;2022-10-16T11:27:24;100454.78;;;12.72;47.82
75424;BME280;64005;55.160;36.002;2022-10-16T11:29:59;100442.16;;;12.74;48.17
75424;BME280;64005;55.160;36.002;2022-10-16T11:32:35;100447.09;;;12.78;47.92
75424;BME280;64005;55.160;36.002;2022-10-16T11:35:17;100441.34;;;12.74;47.62
75424;BME280;64005;55.160;36.002;2022-10-16T11:37:46;100444.22;;;12.83;47.92
75424;BME280;64005;55.160;36.002;2022-10-16T11:40:28;100443.06;;;12.84;47.99
75424;BME280;64005;55.160;36.002;2022-10-16T11:43:06;100444.53;;;12.81;47.47
75424;BME280;64005;55.160;36.002;2022-10-16T11:45:45;100427.56;;;12.78;47.88
75424;BME280;64005;55.160;36.002;2022-10-16T11:48:20;100437.91;;;12.77;47.40
75424;BME280;64005;55.160;36.002;2022-10-16T11:54:39;100430.31;;;12.69;47.90
75424;BME280;64005;55.160;36.002;2022-10-16T11:57:21;100397.97;;;12.54;47.63
75424;BME280;64005;55.160;36.002;2022-10-16T12:00:25;100421.09;;;12.68;47.66
75424;BME280;64005;55.160;36.002;2022-10-16T12:03:15;100434.03;;;12.64;47.75
75424;BME280;64005;55.160;36.002;2022-10-16T12:08:17;100427.00;;;12.67;47.87
75424;BME280;64005;55.160;36.002;2022-10-16T12:10:46;100429.97;;;12.70;47.63
75424;BME280;64005;55.160;36.002;2022-10-16T12:13:35;100429.97;;;12.70;47.50
75424;BME280;64005;55.160;36.002;2022-10-16T12:18:37;100427.81;;;12.67;47.40
75424;BME280;64005;55.160;36.002;2022-10-16T12:21:04;100425.22;;;12.71;47.13
75424;BME280;64005;55.160;36.002;2022-10-16T12:23:33;100424.06;;;12.72;47.21
75424;BME280;64005;55.160;36.002;2022-10-16T12:26:02;100421.97;;;12.55;47.68
75424;BME280;64005;55.160;36.002;2022-10-16T12:28:33;100427.22;;;12.57;47.18
75424;BME280;64005;55.160;36.002;2022-10-16T12:31:07;100426.06;;;12.58;47.02
75424;BME280;64005;55.160;36.002;2022-10-16T12:33:37;100419.66;;;12.57;47.43
75424;BME280;64005;55.160;36.002;2022-10-16T12:36:13;100428.16;;;12.52;47.01
75424;BME280;64005;55.160;36.002;2022-10-16T12:38:49;100429.31;;;12.51;47.25
75424;BME280;64005;55.160;36.002;2022-10-16T12:41:30;100416.47;;;12.50;47.11
75424;BME280;64005;55.160;36.002;2022-10-16T12:43:58;100430.25;;;12.47;47.08
75424;BME280;64005;55.160;36.002;2022-10-16T12:49:23;100426.44;;;12.43;46.98
75424;BME280;64005;55.160;36.002;2022-10-16T12:51:55;100420.34;;;12.41;47.49
75424;BME280;64005;55.160;36.002;2022-10-16T13:08:03;100427.81;;;12.18;48.10
75424;BME280;64005;55.160;36.002;2022-10-16T13:10:44;100412.16;;;12.08;48.25
75424;BME280;64005;55.160;36.002;2022-10-16T13:13:40;100414.31;;;11.98;48.16
75424;BME280;64005;55.160;36.002;2022-10-16T13:16:47;100424.63;;;11.83;48.59
75424;BME280;64005;55.160;36.002;2022-10-16T13:19:30;100423.16;;;11.72;48.65
75424;BME280;64005;55.160;36.002;2022-10-16T13:25:18;100424.50;;;11.47;48.79
75424;BME280;64005;55.160;36.002;2022-10-16T13:27:54;100418.91;;;11.34;49.52
75424;BME280;64005;55.160;36.002;2022-10-16T13:30:27;100412.06;;;11.26;49.20
75424;BME280;64005;55.160;36.002;2022-10-16T13:33:17;100411.94;;;11.18;49.25
75424;BME280;64005;55.160;36.002;2022-10-16T13:35:54;100405.63;;;11.12;49.89
75424;BME280;64005;55.160;36.002;2022-10-16T13:38:23;100412.44;;;11.06;49.77
75424;BME280;64005;55.160;36.002;2022-10-16T13:40:52;100418.94;;;11.01;50.09
75424;BME280;64005;55.160;36.002;2022-10-16T13:43:22;100424.66;;;10.91;49.82
75424;BME280;64005;55.160;36.002;2022-10-16T13:46:03;100413.47;;;10.77;49.90
75424;BME280;64005;55.160;36.002;2022-10-16T13:48:34;100397.63;;;10.59;50.91
75424;BME280;64005;55.160;36.002;2022-10-16T13:51:17;100421.53;;;10.60;50.73
75424;BME280;64005;55.160;36.002;2022-10-16T13:53:44;100410.25;;;10.52;50.82
75424;BME280;64005;55.160;36.002;2022-10-16T13:56:14;100416.19;;;10.45;50.75
75424;BME280;64005;55.160;36.002;2022-10-16T13:58:41;100411.84;;;10.39;50.98
75424;BME280;64005;55.160;36.002;2022-10-16T14:01:33;100416.13;;;10.31;51.04
75424;BME280;64005;55.160;36.002;2022-10-16T14:04:03;100408.50;;;10.18;51.33
75424;BME280;64005;55.160;36.002;2022-10-16T14:06:30;100408.28;;;10.15;51.51
75424;BME280;64005;55.160;36.002;2022-10-16T14:09:07;100416.44;;;10.06;51.81
75424;BME280;64005;55.160;36.002;2022-10-16T14:11:36;100417.72;;;9.95;51.44
75424;BME280;64005;55.160;36.002;2022-10-16T14:14:13;100418.34;;;9.87;52.09
75424;BME280;64005;55.160;36.002;2022-10-16T14:16:41;100412.13;;;9.76;52.78
75424;BME280;64005;55.160;36.002;2022-10-16T14:21:45;100411.41;;;9.42;52.99
75424;BME280;64005;55.160;36.002;2022-10-16T14:26:50;100406.47;;;9.34;53.22
75424;BME280;64005;55.160;36.002;2022-10-16T14:29:20;100396.00;;;9.26;53.59
75424;BME280;64005;55.160;36.002;2022-10-16T14:32:02;100403.56;;;9.20;53.69
75424;BME280;64005;55.160;36.002;2022-10-16T14:34:33;100401.13;;;9.13;53.94
75424;BME280;64005;55.160;36.002;2022-10-16T14:37:29;100398.16;;;9.05;53.95
75424;BME280;64005;55.160;36.002;2022-10-16T14:39:55;100396.59;;;8.94;54.34